createdAt,value
2022-12-28T00:01:14.330Z,10.53
2022-12-28T00:03:43.407Z,10.49
2022-12-28T00:06:11.356Z,10.52
2022-12-28T00:08:39.102Z,10.52
2022-12-28T00:11:18.615Z,10.60
2022-12-28T00:13:51.219Z,10.59
2022-12-28T00:16:24.661Z,10.51
2022-12-28T00:18:53.404Z,10.42
2022-12-28T00:21:20.455Z,10.52
2022-12-28T00:23:50.898Z,10.56
2022-12-28T00:26:18.224Z,10.60
2022-12-28T00:28:45.254Z,10.55
2022-12-28T00:31:12.690Z,10.62
2022-12-28T00:33:39.960Z,10.60
2022-12-28T00:36:12.744Z,10.58
2022-12-28T00:38:40.345Z,10.53
2022-12-28T00:41:08.427Z,10.54
2022-12-28T00:43:36.008Z,10.61
2022-12-28T00:46:03.635Z,10.60
2022-12-28T00:48:30.628Z,10.59
2022-12-28T00:51:03.394Z,10.62
2022-12-28T00:53:31.692Z,10.59
2022-12-28T00:56:06.572Z,10.63
2022-12-28T00:58:33.696Z,10.65
2022-12-28T01:01:00.785Z,10.50
2022-12-28T01:03:27.850Z,10.51
2022-12-28T01:05:55.784Z,10.55
2022-12-28T01:08:22.789Z,10.55
2022-12-28T01:10:51.042Z,10.61
2022-12-28T01:13:17.954Z,10.65
2022-12-28T01:15:44.900Z,10.66
2022-12-28T01:18:12.758Z,10.67
2022-12-28T01:20:40.223Z,10.66
2022-12-28T01:23:07.407Z,10.71
2022-12-28T01:25:34.730Z,10.71
2022-12-28T01:28:03.037Z,10.84
2022-12-28T01:30:30.493Z,10.92
2022-12-28T01:32:59.640Z,10.94
2022-12-28T01:35:27.870Z,10.92
2022-12-28T01:37:56.879Z,10.88
2022-12-28T01:40:23.837Z,10.81
2022-12-28T01:42:50.803Z,10.92
2022-12-28T01:45:22.062Z,10.94
2022-12-28T01:47:53.610Z,10.84
2022-12-28T01:50:27.325Z,10.73
2022-12-28T01:53:03.307Z,10.79
2022-12-28T01:55:35.814Z,10.83
2022-12-28T01:58:08.211Z,10.79
2022-12-28T02:00:36.829Z,10.77
2022-12-28T02:03:10.289Z,10.73
2022-12-28T02:05:41.019Z,10.83
2022-12-28T02:08:16.789Z,10.78
2022-12-28T02:10:46.253Z,10.69
2022-12-28T02:13:16.937Z,10.69
2022-12-28T02:15:48.147Z,10.73
2022-12-28T02:18:18.131Z,10.68
2022-12-28T02:21:16.485Z,10.60
2022-12-28T02:24:15.194Z,10.48
2022-12-28T02:26:53.982Z,10.37
2022-12-28T02:29:55.629Z,10.37
2022-12-28T02:32:55.673Z,10.52
2022-12-28T02:35:37.046Z,10.53
2022-12-28T02:38:15.848Z,10.45
2022-12-28T02:40:49.850Z,10.40
2022-12-28T02:43:17.037Z,10.38
2022-12-28T02:46:05.832Z,10.34
2022-12-28T02:48:59.446Z,10.26
2022-12-28T02:51:58.113Z,10.24
2022-12-28T02:55:20.759Z,10.04
2022-12-28T02:58:25.395Z,9.88
2022-12-28T03:01:13.390Z,9.82
2022-12-28T03:03:59.894Z,9.84
2022-12-28T03:07:04.650Z,9.83
2022-12-28T03:09:41.544Z,9.88
2022-12-28T03:12:19.531Z,9.83
2022-12-28T03:14:56.434Z,9.74
2022-12-28T03:17:47.485Z,9.65
2022-12-28T03:20:41.999Z,9.69
2022-12-28T03:23:32.458Z,9.79
2022-12-28T03:26:21.437Z,9.84
2022-12-28T03:29:09.485Z,9.72
2022-12-28T03:31:37.507Z,9.84
2022-12-28T03:34:07.036Z,9.86
2022-12-28T03:36:47.854Z,9.87
2022-12-28T03:39:30.248Z,9.89
2022-12-28T03:42:24.760Z,9.88
2022-12-28T03:45:01.637Z,9.94
2022-12-28T03:47:31.700Z,10.06
2022-12-28T03:50:00.550Z,10.15
2022-12-28T03:52:28.381Z,10.06
2022-12-28T03:54:55.385Z,10.20
2022-12-28T03:57:23.164Z,10.27
2022-12-28T03:59:50.165Z,10.19
2022-12-28T04:02:17.251Z,10.18
2022-12-28T04:04:44.237Z,10.15
2022-12-28T04:07:12.518Z,10.11
2022-12-28T04:09:39.391Z,10.11
2022-12-28T04:12:06.800Z,10.07
2022-12-28T04:14:33.695Z,10.10
2022-12-28T04:17:00.572Z,10.15
2022-12-28T04:19:27.618Z,10.13
2022-12-28T04:21:54.488Z,10.14
2022-12-28T04:24:22.787Z,10.15
2022-12-28T04:26:49.643Z,10.17
2022-12-28T04:29:16.509Z,9.95
2022-12-28T04:31:43.446Z,9.98
2022-12-28T04:34:11.037Z,10.05
2022-12-28T04:36:39.479Z,9.86
2022-12-28T04:39:06.549Z,9.85
2022-12-28T04:41:34.805Z,9.90
2022-12-28T04:44:01.987Z,10.05
2022-12-28T04:46:28.971Z,10.11
2022-12-28T04:48:55.897Z,9.96
2022-12-28T04:51:25.956Z,9.97
2022-12-28T04:53:53.878Z,10.05
2022-12-28T04:56:23.413Z,10.04
2022-12-28T04:58:56.134Z,9.97
2022-12-28T05:01:23.829Z,10.00
2022-12-28T05:03:57.179Z,9.95
2022-12-28T05:06:25.624Z,9.98
2022-12-28T05:08:52.743Z,9.96
2022-12-28T05:11:23.715Z,10.07
2022-12-28T05:13:51.080Z,10.03
2022-12-28T05:16:22.310Z,10.07
2022-12-28T05:18:49.850Z,10.08
2022-12-28T05:21:19.910Z,10.11
2022-12-28T05:23:48.952Z,10.11
2022-12-28T05:26:18.660Z,10.05
2022-12-28T05:28:46.525Z,10.14
2022-12-28T05:31:17.163Z,10.20
2022-12-28T05:33:46.005Z,10.25
2022-12-28T05:36:16.954Z,10.26
2022-12-28T05:38:44.803Z,10.28
2022-12-28T05:41:15.466Z,10.26
2022-12-28T05:43:43.345Z,10.37
2022-12-28T05:46:13.994Z,10.40
2022-12-28T05:48:42.792Z,10.35
2022-12-28T05:51:13.968Z,10.38
2022-12-28T05:53:42.543Z,10.34
2022-12-28T05:56:14.572Z,10.32
2022-12-28T05:58:43.007Z,10.19
2022-12-28T06:01:12.973Z,10.18
2022-12-28T06:03:40.782Z,10.24
2022-12-28T06:06:13.146Z,10.26
2022-12-28T06:08:41.213Z,10.36
2022-12-28T06:11:11.226Z,10.20
2022-12-28T06:13:38.799Z,10.24
2022-12-28T06:16:07.474Z,10.31
2022-12-28T06:18:35.510Z,10.40
2022-12-28T06:21:05.313Z,10.60
2022-12-28T06:23:34.040Z,10.63
2022-12-28T06:26:03.177Z,10.64
2022-12-28T06:28:30.283Z,10.69
2022-12-28T06:31:05.425Z,10.59
2022-12-28T06:33:33.358Z,10.60
2022-12-28T06:36:00.499Z,10.73
2022-12-28T06:38:29.557Z,10.64
2022-12-28T06:41:13.517Z,10.54
2022-12-28T06:43:43.741Z,10.70
2022-12-28T06:46:12.416Z,10.78
2022-12-28T06:48:40.482Z,10.79
2022-12-28T06:51:11.840Z,10.89
2022-12-28T06:53:39.209Z,10.85
2022-12-28T06:56:11.409Z,10.83
2022-12-28T06:58:39.683Z,10.97
2022-12-28T07:01:09.172Z,11.13
2022-12-28T07:03:36.376Z,11.23
2022-12-28T07:06:05.565Z,11.21
2022-12-28T07:08:33.517Z,11.32
2022-12-28T07:11:05.360Z,11.27
2022-12-28T07:13:34.621Z,11.33
2022-12-28T07:16:04.187Z,11.26
2022-12-28T07:18:31.602Z,11.28
2022-12-28T07:21:00.659Z,11.41
2022-12-28T07:23:30.094Z,11.55
2022-12-28T07:25:58.001Z,11.59
2022-12-28T07:28:25.338Z,11.64
2022-12-28T07:30:53.585Z,11.59
2022-12-28T07:33:20.478Z,11.70
2022-12-28T07:35:47.347Z,11.77
2022-12-28T07:38:20.949Z,11.88
2022-12-28T07:40:48.720Z,11.92
2022-12-28T07:43:15.592Z,12.00
2022-12-28T07:45:43.450Z,12.08
2022-12-28T07:48:11.694Z,12.17
2022-12-28T07:50:38.659Z,12.27
2022-12-28T07:53:05.667Z,12.31
2022-12-28T07:55:32.580Z,12.26
2022-12-28T07:57:59.453Z,12.16
2022-12-28T08:00:26.436Z,12.21
2022-12-28T08:02:56.044Z,12.29
2022-12-28T08:05:24.306Z,12.34
2022-12-28T08:07:51.222Z,12.35
2022-12-28T08:10:18.039Z,12.36
2022-12-28T08:12:44.900Z,12.32
2022-12-28T08:15:12.129Z,12.30
2022-12-28T08:17:38.977Z,12.36
2022-12-28T08:20:07.181Z,12.38
2022-12-28T08:22:35.497Z,12.36
2022-12-28T08:25:03.991Z,12.36
2022-12-28T08:27:36.564Z,12.32
2022-12-28T08:30:07.204Z,12.36
2022-12-28T08:32:34.068Z,12.37
2022-12-28T08:35:01.039Z,12.46
2022-12-28T08:37:27.968Z,12.48
2022-12-28T08:39:56.225Z,12.51
2022-12-28T08:42:23.058Z,12.55
2022-12-28T08:44:49.925Z,12.63
2022-12-28T08:47:16.876Z,12.70
2022-12-28T08:49:44.542Z,12.66
2022-12-28T08:52:11.446Z,12.71
2022-12-28T08:54:38.330Z,12.79
2022-12-28T08:57:06.562Z,12.89
2022-12-28T08:59:33.410Z,12.97
2022-12-28T09:02:00.346Z,13.07
2022-12-28T09:04:27.433Z,13.01
2022-12-28T09:06:54.474Z,12.98
2022-12-28T09:09:21.884Z,13.03
2022-12-28T09:11:49.223Z,12.96
2022-12-28T09:14:23.293Z,12.91
2022-12-28T09:16:52.223Z,12.93
2022-12-28T09:19:19.609Z,12.95
2022-12-28T09:21:48.943Z,13.08
2022-12-28T09:24:16.017Z,13.20
2022-12-28T09:26:43.181Z,13.19
2022-12-28T09:29:16.168Z,13.32
2022-12-28T09:31:44.587Z,13.43
2022-12-28T09:37:02.931Z,13.55
2022-12-28T09:39:29.972Z,13.51
2022-12-28T09:42:01.336Z,13.56
2022-12-28T09:44:49.361Z,13.55
2022-12-28T09:47:33.967Z,13.51
2022-12-28T09:50:24.947Z,13.58
2022-12-28T09:53:13.579Z,13.57
2022-12-28T09:55:53.408Z,13.62
2022-12-28T09:58:21.870Z,13.68
2022-12-28T10:00:53.999Z,13.66
2022-12-28T10:03:27.057Z,13.72
2022-12-28T10:05:57.513Z,13.65
2022-12-28T10:08:26.366Z,13.58
2022-12-28T10:10:59.360Z,13.58
2022-12-28T10:13:54.085Z,13.60
2022-12-28T10:16:23.969Z,13.57
2022-12-28T10:18:52.707Z,13.41
2022-12-28T10:21:31.605Z,13.44
2022-12-28T10:26:48.236Z,13.66
2022-12-28T10:29:20.475Z,13.72
2022-12-28T10:31:59.700Z,13.55
2022-12-28T10:34:35.711Z,13.64
2022-12-28T10:37:15.504Z,13.66
2022-12-28T10:39:51.538Z,13.69
2022-12-28T10:42:25.440Z,13.75
2022-12-28T10:44:57.572Z,13.74
2022-12-28T10:47:34.933Z,13.73
2022-12-28T10:52:58.120Z,13.78
2022-12-28T10:55:30.820Z,13.76
2022-12-28T10:58:33.753Z,13.72
2022-12-28T11:01:05.679Z,13.66
2022-12-28T11:03:37.294Z,13.60
2022-12-28T11:06:22.748Z,13.52
2022-12-28T11:09:16.400Z,13.52
2022-12-28T11:11:47.127Z,13.66
2022-12-28T11:14:28.085Z,13.72
2022-12-28T11:16:55.026Z,13.80
2022-12-28T11:19:24.329Z,13.64
2022-12-28T11:21:53.255Z,13.58
2022-12-28T11:24:26.961Z,13.57
2022-12-28T11:26:54.179Z,13.73
2022-12-28T11:29:21.230Z,13.88
2022-12-28T11:31:56.645Z,13.95
2022-12-28T11:34:28.271Z,14.04
2022-12-28T11:36:57.084Z,13.92
2022-12-28T11:39:44.418Z,13.91
2022-12-28T11:44:59.979Z,13.94
2022-12-28T11:47:36.212Z,14.08
2022-12-28T11:50:50.225Z,14.15
2022-12-28T11:53:58.372Z,14.23
2022-12-28T11:56:28.597Z,14.28
2022-12-28T11:59:21.518Z,14.16
2022-12-28T12:01:57.011Z,14.25
2022-12-28T12:04:43.705Z,14.27
2022-12-28T12:07:47.833Z,14.27
2022-12-28T12:10:35.351Z,14.24
2022-12-28T12:13:37.498Z,14.26
2022-12-28T12:16:15.975Z,14.20
2022-12-28T12:18:48.706Z,13.96
2022-12-28T12:21:31.317Z,14.02
2022-12-28T12:24:12.955Z,14.17
2022-12-28T12:26:50.955Z,14.18
2022-12-28T12:29:25.952Z,14.20
2022-12-28T12:32:02.352Z,14.13
2022-12-28T12:34:43.666Z,14.19
2022-12-28T12:37:45.924Z,14.18
2022-12-28T12:41:10.181Z,14.23
2022-12-28T12:43:56.756Z,14.27
2022-12-28T12:47:05.391Z,14.27
2022-12-28T12:50:17.351Z,14.21
2022-12-28T12:53:05.288Z,14.21
2022-12-28T12:55:55.824Z,14.27
2022-12-28T12:58:30.574Z,14.31
2022-12-28T13:01:22.912Z,14.28
2022-12-28T13:03:50.937Z,14.18
2022-12-28T13:06:24.218Z,14.22
2022-12-28T13:08:59.090Z,14.29
2022-12-28T13:11:30.874Z,14.34
2022-12-28T13:13:57.783Z,14.36
2022-12-28T13:16:31.005Z,14.26
2022-12-28T13:19:00.990Z,14.29
2022-12-28T13:21:30.728Z,14.21
2022-12-28T13:23:57.653Z,14.14
2022-12-28T13:26:29.242Z,14.12
2022-12-28T13:29:01.468Z,14.04
2022-12-28T13:31:41.902Z,14.06
2022-12-28T13:34:18.699Z,13.96
2022-12-28T13:36:53.577Z,13.87
2022-12-28T13:39:21.441Z,13.92
2022-12-28T13:41:52.065Z,13.87
2022-12-28T13:44:29.908Z,13.82
2022-12-28T13:47:05.711Z,13.79
2022-12-28T13:49:41.702Z,13.81
2022-12-28T13:52:16.820Z,13.72
2022-12-28T13:54:52.175Z,13.60
2022-12-28T14:00:11.405Z,13.68
2022-12-28T14:02:41.763Z,13.68
2022-12-28T14:05:16.107Z,13.76
2022-12-28T14:07:43.301Z,13.82
2022-12-28T14:10:11.696Z,13.79
2022-12-28T14:12:39.471Z,13.82
2022-12-28T14:15:09.450Z,13.86
2022-12-28T14:17:38.629Z,13.91
2022-12-28T14:20:09.884Z,13.84
2022-12-28T14:22:40.071Z,13.86
2022-12-28T14:25:10.509Z,13.65
2022-12-28T14:27:42.524Z,13.68
2022-12-28T14:30:23.395Z,13.57
2022-12-28T14:32:51.660Z,13.63
2022-12-28T14:35:23.386Z,13.55
2022-12-28T14:37:54.032Z,13.57
2022-12-28T14:40:30.463Z,13.61
2022-12-28T14:43:03.330Z,13.70
2022-12-28T14:48:37.117Z,13.58
2022-12-28T14:51:24.019Z,13.49
2022-12-28T14:54:17.977Z,13.55
2022-12-28T14:56:51.283Z,13.57
2022-12-28T14:59:25.339Z,13.58
2022-12-28T15:00:25.281Z,13.72
2022-12-28T15:01:52.585Z,13.60
2022-12-28T15:04:37.215Z,13.52
2022-12-28T15:07:07.635Z,13.50
2022-12-28T15:09:34.890Z,13.50
2022-12-28T15:12:13.685Z,13.51
2022-12-28T15:14:41.403Z,13.54
2022-12-28T15:17:09.460Z,13.50
2022-12-28T15:19:36.433Z,13.55
2022-12-28T15:22:04.954Z,13.47
2022-12-28T15:24:34.281Z,13.39
2022-12-28T15:27:01.728Z,13.50
2022-12-28T15:29:55.683Z,13.46
2022-12-28T15:32:16.137Z,13.53
2022-12-28T15:34:43.227Z,13.63
2022-12-28T15:37:11.456Z,13.67
2022-12-28T15:39:38.356Z,13.64
2022-12-28T15:42:05.439Z,13.70
2022-12-28T15:44:32.446Z,13.71
2022-12-28T15:46:59.482Z,13.75
2022-12-28T15:49:26.569Z,13.77
2022-12-28T15:51:53.631Z,13.74
2022-12-28T15:54:21.868Z,13.80
2022-12-28T15:56:53.699Z,13.80
2022-12-28T15:59:20.959Z,13.85
2022-12-28T16:01:48.232Z,13.86
2022-12-28T16:04:15.449Z,13.84
2022-12-28T16:06:44.940Z,13.90
2022-12-28T16:09:13.813Z,13.94
2022-12-28T16:11:42.821Z,13.94
2022-12-28T16:14:15.328Z,13.87
2022-12-28T16:16:43.753Z,13.88
2022-12-28T16:19:12.727Z,13.81
2022-12-28T16:21:40.170Z,13.82
2022-12-28T16:24:07.805Z,13.89
2022-12-28T16:26:34.996Z,13.88
2022-12-28T16:29:03.461Z,13.89
2022-12-28T16:31:33.340Z,13.87
2022-12-28T16:34:03.707Z,13.83
2022-12-28T16:36:31.650Z,13.79
2022-12-28T16:38:58.930Z,13.72
2022-12-28T16:41:31.402Z,13.62
2022-12-28T16:44:05.994Z,13.42
2022-12-28T16:46:33.479Z,13.39
2022-12-28T16:49:01.948Z,13.42
2022-12-28T16:51:29.829Z,13.41
2022-12-28T16:53:57.281Z,13.38
2022-12-28T16:56:24.293Z,13.43
2022-12-28T16:58:55.833Z,13.52
2022-12-28T17:01:24.215Z,13.60
2022-12-28T17:03:51.190Z,13.62
2022-12-28T17:06:18.961Z,13.52
2022-12-28T17:08:45.963Z,13.50
2022-12-28T17:11:13.564Z,13.53
2022-12-28T17:13:40.473Z,13.55
2022-12-28T17:16:08.779Z,13.53
2022-12-28T17:18:37.984Z,13.42
2022-12-28T17:21:09.967Z,13.40
2022-12-28T17:23:39.308Z,13.45
2022-12-28T17:26:06.588Z,13.51
2022-12-28T17:28:33.533Z,13.51
2022-12-28T17:31:07.528Z,13.47
2022-12-28T17:33:39.164Z,13.51
2022-12-28T17:36:08.955Z,13.48
2022-12-28T17:38:36.078Z,13.53
2022-12-28T17:41:08.910Z,13.55
2022-12-28T17:43:36.097Z,13.57
2022-12-28T17:46:03.694Z,13.48
2022-12-28T17:48:31.028Z,13.39
2022-12-28T17:50:58.959Z,13.47
2022-12-28T17:53:29.102Z,13.43
2022-12-28T17:55:55.951Z,13.48
2022-12-28T17:58:22.844Z,13.58
2022-12-28T18:00:54.880Z,13.52
2022-12-28T18:03:22.028Z,13.55
2022-12-28T18:05:49.428Z,13.58
2022-12-28T18:08:16.618Z,13.51
2022-12-28T18:10:45.652Z,13.56
2022-12-28T18:13:14.084Z,13.61
2022-12-28T18:15:43.160Z,13.53
2022-12-28T18:18:10.410Z,13.54
2022-12-28T18:20:37.364Z,13.46
2022-12-28T18:23:04.344Z,13.56
2022-12-28T18:25:31.764Z,13.54
2022-12-28T18:27:59.992Z,13.57
2022-12-28T18:30:26.995Z,13.67
2022-12-28T18:32:53.911Z,13.58
2022-12-28T18:35:24.849Z,13.63
2022-12-28T18:37:51.903Z,13.57
2022-12-28T18:40:18.969Z,13.54
2022-12-28T18:42:45.822Z,13.61
2022-12-28T18:45:14.303Z,13.60
2022-12-28T18:47:41.237Z,13.57
2022-12-28T18:50:09.333Z,13.54
2022-12-28T18:52:36.263Z,13.47
2022-12-28T18:55:03.925Z,13.41
2022-12-28T18:57:30.827Z,13.27
2022-12-28T18:59:57.689Z,13.26
2022-12-28T19:02:26.009Z,13.17
2022-12-28T19:04:53.315Z,13.04
2022-12-28T19:07:20.408Z,13.00
2022-12-28T19:10:12.966Z,12.99
2022-12-28T19:12:41.085Z,12.91
2022-12-28T19:15:09.523Z,12.92
2022-12-28T19:17:37.821Z,12.92
2022-12-28T19:20:06.342Z,12.94
2022-12-28T19:22:33.310Z,12.93
2022-12-28T19:25:00.250Z,12.86
2022-12-28T19:27:27.324Z,12.61
2022-12-28T19:29:54.178Z,12.65
2022-12-28T19:32:21.140Z,12.67
2022-12-28T19:34:49.436Z,12.63
2022-12-28T19:37:16.295Z,12.57
2022-12-28T19:39:43.204Z,12.52
2022-12-28T19:42:10.133Z,12.57
2022-12-28T19:44:37.011Z,12.56
2022-12-28T19:47:03.942Z,12.65
2022-12-28T19:49:30.855Z,12.62
2022-12-28T19:51:59.092Z,12.59
2022-12-28T19:54:25.997Z,12.58
2022-12-28T19:56:52.837Z,12.54
2022-12-28T19:59:19.725Z,12.61
2022-12-28T20:01:46.672Z,12.71
2022-12-28T20:04:14.609Z,12.65
2022-12-28T20:06:43.578Z,12.50
2022-12-28T20:09:13.445Z,12.50
2022-12-28T20:11:40.706Z,12.51
2022-12-28T20:14:10.045Z,12.56
2022-12-28T20:16:37.492Z,12.40
2022-12-28T20:19:06.835Z,12.37
2022-12-28T20:21:35.333Z,12.44
2022-12-28T20:24:02.935Z,12.38
2022-12-28T20:26:32.465Z,12.32
2022-12-28T20:29:01.327Z,12.34
2022-12-28T20:31:29.182Z,12.43
2022-12-28T20:33:56.287Z,12.30
2022-12-28T20:36:26.546Z,12.31
2022-12-28T20:38:55.101Z,12.40
2022-12-28T20:41:43.862Z,12.49
2022-12-28T20:44:16.298Z,12.55
2022-12-28T20:46:44.184Z,12.54
2022-12-28T20:49:12.162Z,12.52
2022-12-28T20:51:41.176Z,12.51
2022-12-28T20:54:10.287Z,12.36
2022-12-28T20:56:38.481Z,12.28
2022-12-28T20:59:05.806Z,12.26
2022-12-28T21:01:35.718Z,12.46
2022-12-28T21:04:03.059Z,12.46
2022-12-28T21:06:29.993Z,12.51
2022-12-28T21:08:56.859Z,12.49
2022-12-28T21:11:23.836Z,12.60
2022-12-28T21:13:53.802Z,12.63
2022-12-28T21:16:20.786Z,12.70
2022-12-28T21:18:50.592Z,12.65
2022-12-28T21:21:21.777Z,12.66
2022-12-28T21:23:49.280Z,12.71
2022-12-28T21:26:18.880Z,12.66
2022-12-28T21:28:45.806Z,12.62
2022-12-28T21:31:13.820Z,12.55
2022-12-28T21:33:41.279Z,12.73
2022-12-28T21:36:14.983Z,12.84
2022-12-28T21:38:44.098Z,12.85
2022-12-28T21:41:14.310Z,12.83
2022-12-28T21:43:42.095Z,12.88
2022-12-28T21:46:13.394Z,12.82
2022-12-28T21:48:41.491Z,12.84
2022-12-28T21:51:31.162Z,12.74
2022-12-28T21:53:59.178Z,12.82
2022-12-28T21:56:26.485Z,12.86
2022-12-28T21:58:53.313Z,12.93
2022-12-28T22:01:39.234Z,12.98
2022-12-28T22:04:25.199Z,12.98
2022-12-28T22:06:53.428Z,13.03
2022-12-28T22:09:38.650Z,13.12
2022-12-28T22:12:24.684Z,13.06
2022-12-28T22:15:11.541Z,13.13
2022-12-28T22:17:38.424Z,13.17
2022-12-28T22:20:06.884Z,13.21
2022-12-28T22:22:35.083Z,13.22
2022-12-28T22:25:02.062Z,13.31
2022-12-28T22:27:28.937Z,13.37
2022-12-28T22:29:55.784Z,13.41
2022-12-28T22:32:24.028Z,13.46
2022-12-28T22:34:50.938Z,13.42
2022-12-28T22:37:18.107Z,13.50
2022-12-28T22:39:46.369Z,13.55
2022-12-28T22:42:15.373Z,13.64
2022-12-28T22:44:42.419Z,13.52
2022-12-28T22:47:09.563Z,13.56
2022-12-28T22:49:36.515Z,13.53
2022-12-28T22:52:03.682Z,13.60
2022-12-28T22:54:30.581Z,13.65
2022-12-28T22:56:58.792Z,13.61
2022-12-28T22:59:25.746Z,13.56
2022-12-28T23:01:53.169Z,13.62
2022-12-28T23:04:20.567Z,13.64
2022-12-28T23:06:47.513Z,13.70
2022-12-28T23:09:14.558Z,13.78
2022-12-28T23:11:41.585Z,13.80
2022-12-28T23:14:32.243Z,13.80
2022-12-28T23:17:01.079Z,13.76
2022-12-28T23:19:47.500Z,13.85
2022-12-28T23:22:37.536Z,13.80
2022-12-28T23:25:24.525Z,13.79
2022-12-28T23:27:52.090Z,13.89
2022-12-28T23:30:22.374Z,13.86
2022-12-28T23:32:51.611Z,13.88
2022-12-28T23:35:21.294Z,13.72
2022-12-28T23:37:48.904Z,13.78
2022-12-28T23:40:18.992Z,13.76
2022-12-28T23:42:46.219Z,13.92
2022-12-28T23:45:16.234Z,14.06
2022-12-28T23:47:45.331Z,14.11
2022-12-28T23:50:15.407Z,14.11
2022-12-28T23:52:42.799Z,14.20
2022-12-28T23:55:10.609Z,14.34
2022-12-28T23:57:38.336Z,14.31
